createdAt,value
2023-07-28T00:00:28.952Z,13.02
2023-07-28T00:02:57.825Z,13.52
2023-07-28T00:05:26.453Z,14.02
2023-07-28T00:07:56.366Z,13.77
2023-07-28T00:10:25.406Z,15.05
2023-07-28T00:12:53.957Z,13.85
2023-07-28T00:15:22.868Z,13.75
2023-07-28T00:17:51.606Z,13.80
2023-07-28T00:20:20.519Z,14.70
2023-07-28T00:22:49.008Z,15.10
2023-07-28T00:25:19.216Z,14.00
2023-07-28T00:27:48.645Z,14.55
2023-07-28T00:30:18.377Z,14.30
2023-07-28T00:32:47.221Z,13.35
2023-07-28T00:35:15.950Z,13.70
2023-07-28T00:37:44.399Z,14.50
2023-07-28T00:40:14.215Z,14.70
2023-07-28T00:42:44.183Z,14.32
2023-07-28T00:45:13.000Z,14.88
2023-07-28T00:47:42.040Z,14.40
2023-07-28T00:50:11.729Z,15.90
2023-07-28T00:52:42.864Z,15.82
2023-07-28T00:55:11.969Z,16.23
2023-07-28T00:57:41.454Z,17.63
2023-07-28T01:00:12.819Z,18.38
2023-07-28T01:02:41.916Z,17.85
2023-07-28T01:05:10.977Z,20.60
2023-07-28T01:07:45.141Z,19.65
2023-07-28T01:10:17.489Z,19.92
2023-07-28T01:12:46.109Z,20.50
2023-07-28T01:15:16.874Z,21.25
2023-07-28T01:17:45.542Z,21.00
2023-07-28T01:20:14.473Z,20.80
2023-07-28T01:22:51.101Z,22.75
2023-07-28T01:25:25.353Z,20.88
2023-07-28T01:27:56.135Z,21.27
2023-07-28T01:30:27.255Z,21.48
2023-07-28T01:32:56.954Z,20.58
2023-07-28T01:35:25.879Z,20.77
2023-07-28T01:37:54.674Z,19.65
2023-07-28T01:40:23.320Z,19.85
2023-07-28T01:42:51.856Z,21.02
2023-07-28T01:45:21.861Z,19.70
2023-07-28T01:47:51.048Z,19.45
2023-07-28T01:50:19.937Z,19.40
2023-07-28T01:52:50.895Z,19.45
2023-07-28T01:55:19.698Z,18.33
2023-07-28T01:57:54.564Z,17.73
2023-07-28T02:00:25.101Z,16.33
2023-07-28T02:02:54.124Z,16.92
2023-07-28T02:05:23.113Z,16.25
2023-07-28T02:07:51.731Z,17.77
2023-07-28T02:10:20.468Z,17.05
2023-07-28T02:12:49.566Z,16.15
2023-07-28T02:15:18.565Z,16.23
2023-07-28T02:17:49.308Z,14.57
2023-07-28T02:20:30.599Z,15.95
2023-07-28T02:22:59.620Z,15.90
2023-07-28T02:25:28.268Z,14.25
2023-07-28T02:27:56.833Z,13.85
2023-07-28T02:30:27.529Z,14.68
2023-07-28T02:32:57.590Z,13.23
2023-07-28T02:35:26.255Z,14.32
2023-07-28T02:37:55.296Z,13.98
2023-07-28T02:40:23.855Z,13.02
2023-07-28T02:42:54.269Z,14.10
2023-07-28T02:45:22.816Z,13.32
2023-07-28T02:47:51.491Z,14.48
2023-07-28T02:50:21.444Z,14.52
2023-07-28T02:52:50.126Z,14.48
2023-07-28T02:55:19.057Z,13.05
2023-07-28T02:57:48.824Z,13.48
2023-07-28T03:00:17.660Z,13.18
2023-07-28T03:02:46.747Z,13.90
2023-07-28T03:05:15.794Z,13.68
2023-07-28T03:08:06.461Z,13.52
2023-07-28T03:10:35.303Z,14.80
2023-07-28T03:13:03.854Z,14.07
2023-07-28T03:15:32.517Z,14.25
2023-07-28T03:18:01.008Z,14.98
2023-07-28T03:20:29.704Z,14.88
2023-07-28T03:22:58.841Z,14.95
2023-07-28T03:25:28.945Z,14.40
2023-07-28T03:27:57.578Z,15.65
2023-07-28T03:30:26.160Z,14.25
2023-07-28T03:32:54.789Z,15.15
2023-07-28T03:35:24.553Z,15.75
2023-07-28T03:38:02.666Z,14.40
2023-07-28T03:40:33.146Z,14.60
2023-07-28T03:43:02.267Z,16.58
2023-07-28T03:45:31.244Z,13.57
2023-07-28T03:47:59.980Z,12.68
2023-07-28T03:50:29.163Z,13.07
2023-07-28T03:52:58.094Z,12.95
2023-07-28T03:55:26.972Z,13.05
2023-07-28T03:57:56.945Z,12.70
2023-07-28T04:00:25.632Z,13.55
2023-07-28T04:02:54.234Z,13.70
2023-07-28T04:05:22.900Z,13.80
2023-07-28T04:07:51.760Z,13.45
2023-07-28T04:10:20.454Z,12.70
2023-07-28T04:12:49.194Z,13.30
2023-07-28T04:15:19.109Z,15.18
2023-07-28T04:17:47.825Z,14.52
2023-07-28T04:20:16.407Z,14.63
2023-07-28T04:22:45.117Z,14.40
2023-07-28T04:25:14.421Z,13.80
2023-07-28T04:27:49.964Z,13.15
2023-07-28T04:30:20.465Z,13.13
2023-07-28T04:32:49.190Z,13.55
2023-07-28T04:35:21.549Z,13.43
2023-07-28T04:38:10.695Z,13.18
2023-07-28T04:40:58.964Z,15.23
2023-07-28T04:43:44.490Z,15.15
2023-07-28T04:46:15.077Z,14.40
2023-07-28T04:48:45.970Z,14.95
2023-07-28T04:51:34.827Z,14.60
2023-07-28T04:54:21.811Z,16.05
2023-07-28T04:56:54.138Z,14.75
2023-07-28T04:59:29.898Z,14.77
2023-07-28T05:02:00.163Z,16.40
2023-07-28T05:04:29.136Z,15.82
2023-07-28T05:06:58.180Z,15.77
2023-07-28T05:09:26.908Z,14.93
2023-07-28T05:11:55.619Z,13.95
2023-07-28T05:14:24.266Z,14.27
2023-07-28T05:16:52.975Z,15.65
2023-07-28T05:19:34.678Z,15.40
2023-07-28T05:22:07.806Z,15.02
2023-07-28T05:24:56.859Z,14.98
2023-07-28T05:27:45.535Z,14.18
2023-07-28T05:30:14.221Z,14.70
2023-07-28T05:32:43.286Z,13.68
2023-07-28T05:35:30.201Z,14.55
2023-07-28T05:37:58.777Z,13.48
2023-07-28T05:40:27.592Z,14.68
2023-07-28T05:42:56.470Z,13.57
2023-07-28T05:45:25.001Z,13.45
2023-07-28T05:47:54.070Z,12.77
2023-07-28T05:50:22.758Z,13.70
2023-07-28T05:52:52.909Z,12.98
2023-07-28T05:55:21.573Z,12.85
2023-07-28T05:57:50.214Z,12.68
2023-07-28T06:00:19.219Z,11.82
2023-07-28T06:02:48.409Z,11.88
2023-07-28T06:05:33.601Z,12.82
2023-07-28T06:08:04.164Z,12.13
2023-07-28T06:10:32.767Z,12.55
2023-07-28T06:13:01.508Z,12.23
2023-07-28T06:15:32.832Z,11.32
2023-07-28T06:18:01.620Z,11.00
2023-07-28T06:20:30.818Z,11.40
2023-07-28T06:22:59.594Z,10.63
2023-07-28T06:25:29.559Z,10.07
2023-07-28T06:27:58.561Z,9.98
2023-07-28T06:30:27.331Z,11.15
2023-07-28T06:32:56.313Z,11.10
2023-07-28T06:35:25.199Z,10.02
2023-07-28T06:37:54.039Z,10.05
2023-07-28T06:40:22.780Z,10.38
2023-07-28T06:42:53.130Z,10.68
2023-07-28T06:45:22.443Z,10.90
2023-07-28T06:47:52.679Z,12.00
2023-07-28T06:50:22.643Z,10.95
2023-07-28T06:52:52.174Z,10.07
2023-07-28T06:55:25.307Z,11.45
2023-07-28T06:57:55.286Z,12.57
2023-07-28T07:00:24.399Z,10.98
2023-07-28T07:02:53.502Z,11.15
2023-07-28T07:05:21.967Z,12.57
2023-07-28T07:07:50.797Z,12.05
2023-07-28T07:10:19.627Z,12.15
2023-07-28T07:12:48.776Z,13.52
2023-07-28T07:15:19.043Z,11.50
2023-07-28T07:17:47.860Z,11.20
2023-07-28T07:20:16.789Z,12.52
2023-07-28T07:22:45.484Z,13.38
2023-07-28T07:25:14.095Z,13.30
2023-07-28T07:27:42.981Z,13.05
2023-07-28T07:30:12.243Z,12.63
2023-07-28T07:32:42.649Z,11.13
2023-07-28T07:35:11.634Z,11.38
2023-07-28T07:37:40.477Z,12.40
2023-07-28T07:40:10.029Z,13.65
2023-07-28T07:42:45.580Z,13.95
2023-07-28T07:45:15.028Z,13.38
2023-07-28T07:47:45.260Z,12.85
2023-07-28T07:50:14.831Z,12.57
2023-07-28T07:52:43.525Z,12.27
2023-07-28T07:55:13.575Z,11.23
2023-07-28T07:57:42.561Z,11.52
2023-07-28T08:00:12.490Z,11.10
2023-07-28T08:02:46.949Z,11.50
2023-07-28T08:05:16.273Z,11.93
2023-07-28T08:07:45.632Z,10.77
2023-07-28T08:10:14.382Z,10.82
2023-07-28T08:12:45.940Z,9.90
2023-07-28T08:15:14.741Z,10.25
2023-07-28T08:17:44.911Z,10.93
2023-07-28T08:20:14.266Z,10.23
2023-07-28T08:22:42.771Z,9.98
2023-07-28T08:25:11.646Z,9.52
2023-07-28T08:27:40.268Z,10.35
2023-07-28T08:30:10.227Z,8.98
2023-07-28T08:32:39.611Z,8.55
2023-07-28T08:35:10.455Z,7.00
2023-07-28T08:37:39.691Z,6.70
2023-07-28T08:40:09.676Z,6.80
2023-07-28T08:42:39.625Z,7.53
2023-07-28T08:45:10.379Z,7.57
2023-07-28T08:47:41.079Z,7.70
2023-07-28T08:50:12.324Z,7.18
2023-07-28T08:52:51.827Z,7.65
2023-07-28T08:55:20.740Z,7.93
2023-07-28T08:57:49.371Z,7.88
2023-07-28T09:00:19.109Z,7.85
2023-07-28T09:02:51.574Z,7.65
2023-07-28T09:05:25.538Z,8.15
2023-07-28T09:07:54.792Z,7.72
2023-07-28T09:10:23.337Z,7.35
2023-07-28T09:12:53.715Z,7.40
2023-07-28T09:15:22.144Z,7.72
2023-07-28T09:17:50.805Z,8.30
2023-07-28T09:20:19.673Z,8.07
2023-07-28T09:22:54.161Z,7.07
2023-07-28T09:25:23.202Z,7.25
2023-07-28T09:27:52.549Z,7.10
2023-07-28T09:30:23.131Z,11.38
2023-07-28T09:32:53.137Z,7.75
2023-07-28T09:35:23.064Z,10.57
2023-07-28T09:37:56.251Z,7.32
2023-07-28T09:40:25.543Z,6.60
2023-07-28T09:42:56.599Z,6.70
2023-07-28T09:47:59.096Z,6.53
2023-07-28T09:50:30.073Z,7.65
2023-07-28T09:53:05.252Z,7.57
2023-07-28T09:55:36.595Z,7.30
2023-07-28T09:58:08.451Z,8.15
2023-07-28T10:00:38.078Z,8.13
2023-07-28T10:03:06.831Z,7.30
2023-07-28T10:05:36.476Z,8.25
2023-07-28T10:08:07.741Z,7.22
2023-07-28T10:10:36.719Z,7.78
2023-07-28T10:13:05.488Z,8.32
2023-07-28T10:15:34.769Z,8.70
2023-07-28T10:18:03.378Z,8.05
2023-07-28T10:23:10.819Z,8.68
2023-07-28T10:25:40.217Z,9.23
2023-07-28T10:28:10.560Z,10.05
2023-07-28T10:30:41.595Z,9.60
2023-07-28T10:33:29.205Z,10.13
2023-07-28T10:35:57.901Z,9.60
2023-07-28T10:38:35.760Z,8.77
2023-07-28T10:41:11.678Z,8.70
2023-07-28T10:43:40.546Z,8.77
2023-07-28T10:46:11.568Z,8.13
2023-07-28T10:48:45.053Z,8.50
2023-07-28T10:51:13.945Z,8.40
2023-07-28T10:53:43.911Z,7.32
2023-07-28T10:56:12.808Z,7.60
2023-07-28T10:58:41.260Z,7.57
2023-07-28T11:01:09.880Z,7.88
2023-07-28T11:03:38.626Z,8.68
2023-07-28T11:06:07.849Z,8.00
2023-07-28T11:08:37.292Z,8.23
2023-07-28T11:11:08.711Z,8.70
2023-07-28T11:13:41.400Z,8.27
2023-07-28T11:16:13.307Z,7.95
2023-07-28T11:18:42.036Z,7.25
2023-07-28T11:21:10.517Z,9.32
2023-07-28T11:23:40.717Z,8.23
2023-07-28T11:26:12.756Z,9.68
2023-07-28T11:28:41.595Z,9.70
2023-07-28T11:31:11.359Z,8.35
2023-07-28T11:33:40.040Z,9.68
2023-07-28T11:36:09.043Z,8.50
2023-07-28T11:38:38.380Z,8.98
2023-07-28T11:41:08.230Z,8.75
2023-07-28T11:43:38.497Z,8.35
2023-07-28T11:46:37.287Z,8.93
2023-07-28T11:49:11.211Z,9.45
2023-07-28T11:51:44.353Z,8.82
2023-07-28T11:54:15.413Z,8.50
2023-07-28T11:56:44.763Z,8.10
2023-07-28T11:59:18.304Z,7.88
2023-07-28T12:07:08.394Z,5.05
2023-07-28T12:12:27.586Z,4.25
2023-07-28T12:20:12.233Z,3.45
2023-07-28T12:22:42.417Z,3.90
2023-07-28T12:25:12.076Z,3.58
2023-07-28T12:27:40.827Z,3.50
2023-07-28T12:33:01.945Z,3.72
2023-07-28T12:38:42.051Z,3.47
2023-07-28T12:48:35.265Z,3.23
2023-07-28T12:51:04.274Z,3.55
2023-07-28T12:53:35.935Z,3.40
2023-07-28T12:56:05.217Z,3.60
2023-07-28T13:01:09.216Z,3.22
2023-07-28T13:03:39.523Z,3.22
2023-07-28T13:06:08.217Z,3.10
2023-07-28T13:11:18.155Z,3.22
2023-07-28T13:13:47.213Z,3.45
2023-07-28T13:16:17.550Z,6.75
2023-07-28T13:18:46.357Z,3.00
2023-07-28T13:21:15.062Z,2.92
2023-07-28T13:23:43.623Z,2.97
2023-07-28T13:26:12.164Z,2.70
2023-07-28T13:28:44.555Z,3.17
2023-07-28T13:31:13.166Z,3.40
2023-07-28T13:33:43.067Z,3.50
2023-07-28T13:36:11.903Z,3.05
2023-07-28T13:38:41.583Z,3.13
2023-07-28T13:41:10.378Z,3.85
2023-07-28T13:43:39.145Z,3.10
2023-07-28T13:46:10.903Z,3.17
2023-07-28T13:54:23.495Z,2.50
2023-07-28T13:56:34.030Z,1.95
2023-07-28T13:59:02.650Z,2.60
2023-07-28T14:01:31.412Z,3.30
2023-07-28T14:03:59.932Z,2.20
2023-07-28T14:06:30.326Z,3.00
2023-07-28T14:08:58.737Z,2.50
2023-07-28T14:11:27.305Z,2.90
2023-07-28T14:13:55.961Z,2.50
2023-07-28T14:16:24.741Z,2.35
2023-07-28T14:18:53.216Z,2.20
2023-07-28T14:21:21.941Z,2.40
2023-07-28T14:23:51.827Z,2.35
2023-07-28T14:26:21.116Z,2.72
2023-07-28T14:28:49.763Z,2.60
2023-07-28T14:31:18.836Z,3.92
2023-07-28T14:33:49.164Z,3.35
2023-07-28T14:36:18.530Z,2.08
2023-07-28T14:38:47.297Z,2.25
2023-07-28T14:41:17.308Z,3.38
2023-07-28T14:43:46.494Z,2.17
2023-07-28T14:46:15.461Z,2.80
2023-07-28T14:48:43.964Z,2.80
2023-07-28T14:51:12.812Z,2.78
2023-07-28T14:53:48.435Z,3.00
2023-07-28T14:56:19.384Z,3.63
2023-07-28T14:58:48.059Z,3.70
2023-07-28T15:01:17.278Z,3.55
2023-07-28T15:03:46.177Z,2.92
2023-07-28T15:06:15.574Z,3.65
2023-07-28T15:08:44.252Z,4.03
2023-07-28T15:11:12.995Z,3.45
2023-07-28T15:13:43.321Z,3.50
2023-07-28T15:16:11.886Z,3.63
2023-07-28T15:18:41.094Z,3.45
2023-07-28T15:21:10.539Z,3.45
2023-07-28T15:23:39.178Z,3.45
2023-07-28T15:26:08.149Z,4.07
2023-07-28T15:28:37.210Z,3.20
2023-07-28T15:31:07.248Z,3.30
2023-07-28T15:33:35.925Z,3.28
2023-07-28T15:36:04.557Z,2.90
2023-07-28T15:38:33.680Z,3.33
2023-07-28T15:41:02.649Z,3.20
2023-07-28T15:43:31.640Z,3.13
2023-07-28T15:46:00.259Z,3.38
2023-07-28T15:48:30.392Z,3.58
2023-07-28T15:50:59.089Z,3.25
2023-07-28T15:53:28.002Z,2.15
2023-07-28T15:55:56.685Z,1.60
2023-07-28T15:58:25.614Z,1.00
2023-07-28T16:00:54.111Z,1.20
2023-07-28T16:03:25.133Z,1.30
2023-07-28T16:05:55.149Z,0.95
2023-07-28T16:08:23.785Z,0.80
2023-07-28T16:10:52.395Z,0.93
2023-07-28T16:13:22.533Z,0.90
2023-07-28T16:15:51.631Z,0.80
2023-07-28T16:18:20.175Z,0.90
2023-07-28T16:20:48.971Z,1.15
2023-07-28T16:23:18.823Z,0.80
2023-07-28T16:25:51.071Z,0.95
2023-07-28T16:28:19.821Z,0.90
2023-07-28T16:30:48.364Z,0.95
2023-07-28T16:33:17.253Z,0.95
2023-07-28T16:35:45.734Z,0.82
2023-07-28T16:38:14.362Z,1.20
2023-07-28T16:40:44.481Z,1.00
2023-07-28T16:43:13.269Z,1.13
2023-07-28T16:45:42.949Z,0.98
2023-07-28T16:48:11.859Z,1.00
2023-07-28T16:50:40.502Z,0.77
2023-07-28T16:53:09.367Z,0.80
2023-07-28T16:55:38.078Z,0.75
2023-07-28T16:58:08.291Z,1.30
2023-07-28T17:00:37.034Z,1.13
2023-07-28T17:03:05.880Z,1.10
2023-07-28T17:05:34.602Z,1.30
2023-07-28T17:08:03.593Z,1.40
2023-07-28T17:10:32.773Z,1.08
2023-07-28T17:13:01.764Z,1.10
2023-07-28T17:15:40.169Z,1.10
2023-07-28T17:18:12.168Z,1.50
2023-07-28T17:20:41.124Z,1.40
2023-07-28T17:23:09.708Z,1.17
2023-07-28T17:25:39.007Z,1.05
2023-07-28T17:28:08.556Z,1.20
2023-07-28T17:30:38.841Z,1.20
2023-07-28T17:33:07.547Z,1.40
2023-07-28T17:35:36.244Z,1.23
2023-07-28T17:38:04.722Z,1.20
2023-07-28T17:40:33.480Z,1.42
2023-07-28T17:43:02.028Z,1.45
2023-07-28T17:45:30.584Z,1.60
2023-07-28T17:48:00.628Z,1.02
2023-07-28T17:50:29.558Z,1.20
2023-07-28T17:52:58.089Z,1.42
2023-07-28T17:55:27.167Z,1.13
2023-07-28T17:57:55.728Z,1.20
2023-07-28T18:00:24.760Z,1.10
2023-07-28T18:02:53.769Z,1.30
2023-07-28T18:05:23.865Z,1.20
2023-07-28T18:07:52.661Z,1.63
2023-07-28T18:10:21.298Z,2.00
2023-07-28T18:12:50.201Z,1.50
2023-07-28T18:15:18.857Z,1.40
2023-07-28T18:17:47.469Z,1.45
2023-07-28T18:20:16.008Z,1.50
2023-07-28T18:22:46.090Z,1.30
2023-07-28T18:25:14.864Z,1.50
2023-07-28T18:27:43.555Z,1.45
2023-07-28T18:30:13.488Z,1.60
2023-07-28T18:32:42.517Z,2.83
2023-07-28T18:35:11.481Z,1.50
2023-07-28T18:37:40.373Z,1.70
2023-07-28T18:40:11.233Z,1.98
2023-07-28T18:42:39.913Z,1.42
2023-07-28T18:45:09.921Z,1.30
2023-07-28T18:47:38.672Z,1.10
2023-07-28T18:50:08.381Z,1.30
2023-07-28T18:52:36.925Z,1.40
2023-07-28T18:55:05.880Z,1.23
2023-07-28T18:57:35.914Z,1.52
2023-07-28T19:00:08.183Z,1.38
2023-07-28T19:02:37.349Z,1.40
2023-07-28T19:05:06.519Z,1.45
2023-07-28T19:07:35.265Z,1.58
2023-07-28T19:10:04.181Z,1.48
2023-07-28T19:12:36.859Z,1.58
2023-07-28T19:15:06.407Z,1.80
2023-07-28T19:17:35.393Z,1.55
2023-07-28T19:20:05.090Z,1.55
2023-07-28T19:22:34.756Z,1.05
2023-07-28T19:25:04.621Z,1.10
2023-07-28T19:27:33.356Z,1.23
2023-07-28T19:30:03.451Z,1.27
2023-07-28T19:32:33.980Z,1.60
2023-07-28T19:35:03.324Z,1.08
2023-07-28T19:37:44.021Z,1.40
2023-07-28T19:40:14.600Z,1.50
2023-07-28T19:42:43.090Z,2.00
2023-07-28T19:45:13.253Z,1.90
2023-07-28T19:47:42.047Z,1.48
2023-07-28T19:50:14.233Z,1.40
2023-07-28T19:52:46.543Z,1.35
2023-07-28T19:55:15.215Z,1.80
2023-07-28T19:57:43.739Z,1.80
2023-07-28T20:00:15.088Z,1.73
2023-07-28T20:02:43.941Z,1.63
2023-07-28T20:05:15.753Z,1.45
2023-07-28T20:07:44.458Z,1.60
2023-07-28T20:10:13.126Z,1.42
2023-07-28T20:12:41.659Z,1.65
2023-07-28T20:15:10.916Z,1.67
2023-07-28T20:17:41.144Z,1.27
2023-07-28T20:20:11.008Z,1.70
2023-07-28T20:22:39.771Z,1.30
2023-07-28T20:25:09.060Z,1.70
2023-07-28T20:27:45.316Z,1.80
2023-07-28T20:30:15.289Z,1.70
2023-07-28T20:32:45.338Z,1.60
2023-07-28T20:35:14.512Z,2.08
2023-07-28T20:37:43.043Z,1.90
2023-07-28T20:40:12.837Z,1.65
2023-07-28T20:42:41.670Z,1.50
2023-07-28T20:45:10.967Z,1.48
2023-07-28T20:47:40.139Z,1.50
2023-07-28T20:50:10.898Z,1.52
2023-07-28T20:52:39.587Z,1.60
2023-07-28T20:55:09.268Z,2.00
2023-07-28T20:57:38.072Z,1.77
2023-07-28T21:00:07.956Z,1.80
2023-07-28T21:02:37.966Z,2.00
2023-07-28T21:05:08.393Z,1.83
2023-07-28T21:07:38.362Z,2.10
2023-07-28T21:10:08.386Z,1.70
2023-07-28T21:12:36.955Z,2.30
2023-07-28T21:15:06.233Z,2.40
2023-07-28T21:17:35.387Z,1.95
2023-07-28T21:20:05.850Z,2.20
2023-07-28T21:22:35.025Z,2.08
2023-07-28T21:25:05.359Z,2.55
2023-07-28T21:27:34.323Z,2.45
2023-07-28T21:30:03.884Z,2.78
2023-07-28T21:32:33.740Z,2.50
2023-07-28T21:35:02.873Z,3.08
2023-07-28T21:37:33.204Z,2.90
2023-07-28T21:40:01.802Z,2.45
2023-07-28T21:42:35.667Z,2.30
2023-07-28T21:45:04.807Z,2.33
2023-07-28T21:47:34.154Z,2.42
2023-07-28T21:50:02.904Z,2.67
2023-07-28T21:52:33.657Z,2.30
2023-07-28T21:55:02.419Z,1.95
2023-07-28T21:57:32.390Z,2.22
2023-07-28T22:00:02.750Z,2.90
2023-07-28T22:02:39.139Z,2.28
2023-07-28T22:05:07.973Z,2.55
2023-07-28T22:07:36.840Z,2.40
2023-07-28T22:10:06.696Z,1.70
2023-07-28T22:12:35.637Z,1.90
2023-07-28T22:15:06.690Z,1.60
2023-07-28T22:17:36.153Z,1.90
2023-07-28T22:20:05.683Z,1.90
2023-07-28T22:22:34.888Z,1.80
2023-07-28T22:25:03.903Z,1.63
2023-07-28T22:27:32.860Z,1.77
2023-07-28T22:30:01.449Z,1.80
2023-07-28T22:32:36.880Z,1.40
2023-07-28T22:35:10.086Z,1.60
2023-07-28T22:37:38.961Z,1.73
2023-07-28T22:40:10.156Z,2.10
2023-07-28T22:42:38.992Z,1.80
2023-07-28T22:45:08.886Z,1.75
2023-07-28T22:47:39.631Z,1.60
2023-07-28T22:50:09.670Z,1.60
2023-07-28T22:52:38.302Z,1.75
2023-07-28T22:55:16.295Z,1.98
2023-07-28T22:57:45.697Z,1.90
2023-07-28T23:00:18.221Z,1.70
2023-07-28T23:02:48.622Z,2.00
2023-07-28T23:05:17.561Z,1.92
2023-07-28T23:07:46.267Z,2.03
2023-07-28T23:10:17.749Z,2.08
2023-07-28T23:12:46.840Z,2.10
2023-07-28T23:15:15.914Z,1.80
2023-07-28T23:17:45.724Z,2.15
2023-07-28T23:20:15.908Z,2.40
2023-07-28T23:22:45.284Z,2.30
2023-07-28T23:25:14.184Z,2.10
2023-07-28T23:27:42.952Z,2.15
2023-07-28T23:30:13.212Z,2.28
2023-07-28T23:32:41.833Z,2.47
2023-07-28T23:35:10.554Z,2.30
2023-07-28T23:37:40.443Z,2.30
2023-07-28T23:40:10.861Z,2.33
2023-07-28T23:42:39.912Z,2.38
2023-07-28T23:45:09.852Z,1.83
2023-07-28T23:47:39.409Z,2.40
2023-07-28T23:50:09.870Z,1.95
2023-07-28T23:52:40.459Z,2.10
2023-07-28T23:55:09.509Z,2.13
2023-07-28T23:57:39.407Z,2.30
